Time;durP1;ratioP1;P1;durP2;ratioP2;P2;SDS_P1;SDS_P2;PMS_P1;PMS_P2;Temp;Humidity;BMP_temperature;BMP_pressure;BME280_temperature;BME280_humidity;BME280_pressure;Samples;Min_cycle;Max_cycle;Signal;HPM_P1;HPM_P2
2022/06/06 00:02:15;;;;;;;7.03;2.45;;;;;;;25.86;44.30;96903.16;5136000;27;20401;-26
2022/06/06 00:04:42;;;;;;;5.78;2.33;;;;;;;25.84;44.14;96914.03;5135857;27;20050;-26
2022/06/06 00:07:07;;;;;;;4.93;2.38;;;;;;;25.85;44.11;96915.53;5136147;27;20039;-26
2022/06/06 00:09:34;;;;;;;5.45;2.20;;;;;;;25.85;44.25;96912.00;5135688;27;20058;-26
2022/06/06 00:12:01;;;;;;;6.07;2.30;;;;;;;25.85;44.15;96918.31;5135874;27;20106;-26
2022/06/06 00:14:27;;;;;;;5.20;2.35;;;;;;;25.83;44.43;96912.56;5135743;27;20031;-25
2022/06/06 00:16:53;;;;;;;5.10;2.50;;;;;;;25.86;44.57;96910.75;5135883;27;20043;-26
2022/06/06 00:19:18;;;;;;;5.18;2.30;;;;;;;25.86;44.37;96910.75;5135958;27;20402;-25
2022/06/06 00:21:44;;;;;;;4.35;2.30;;;;;;;25.87;44.22;96907.44;5134997;27;20048;-26
2022/06/06 00:24:10;;;;;;;6.05;2.65;;;;;;;25.85;44.23;96907.22;5135611;27;20032;-26
2022/06/06 00:26:36;;;;;;;5.75;2.22;;;;;;;25.85;44.16;96912.00;5135567;27;20030;-26
2022/06/06 00:29:03;;;;;;;6.13;2.60;;;;;;;25.82;44.28;96908.28;5135474;27;20378;-26
2022/06/06 00:37:00;;;;;;;4.97;2.28;;;;;;;25.85;43.77;96896.09;5135726;27;20417;-26
2022/06/06 00:39:26;;;;;;;5.15;2.60;;;;;;;25.78;43.81;96891.13;5135208;27;20023;-26
2022/06/06 00:41:54;;;;;;;4.13;2.30;;;;;;;25.84;43.68;96891.81;5135335;27;20023;-26
2022/06/06 00:44:28;;;;;;;4.80;2.17;;;;;;;25.80;43.99;96899.69;5135266;27;20105;-26
2022/06/06 00:47:16;;;;;;;6.47;2.33;;;;;;;25.82;43.50;96897.16;5135150;27;20092;-25
2022/06/06 00:50:02;;;;;;;9.40;2.30;;;;;;;25.78;43.70;96893.88;5135068;27;20057;-26
2022/06/06 00:52:35;;;;;;;6.82;2.65;;;;;;;25.82;43.68;96890.84;5135087;27;20052;-26
2022/06/06 00:55:15;;;;;;;8.15;2.53;;;;;;;25.78;43.59;96891.13;5134919;27;20023;-25
2022/06/06 00:57:46;;;;;;;5.40;2.47;;;;;;;25.84;43.26;96888.31;5135071;27;20460;-26
2022/06/06 01:00:15;;;;;;;3.63;1.67;;;;;;;25.85;42.94;96884.22;5134863;27;20015;-26
2022/06/06 01:02:45;;;;;;;4.03;2.60;;;;;;;25.90;42.66;96886.22;5135513;27;20039;-26
2022/06/06 01:05:12;;;;;;;5.35;2.38;;;;;;;25.83;43.32;96887.56;5134773;27;20041;-26
2022/06/06 01:07:37;;;;;;;5.57;2.38;;;;;;;25.83;42.66;96881.25;5134882;27;20110;-26
2022/06/06 01:10:04;;;;;;;6.30;2.50;;;;;;;25.82;43.08;96886.03;5134688;27;20130;-25
2022/06/06 01:12:32;;;;;;;4.45;2.20;;;;;;;25.83;42.97;96881.25;5134836;27;20042;-25
2022/06/06 01:15:04;;;;;;;4.13;2.33;;;;;;;25.86;42.68;96885.75;5134572;27;20076;-26
2022/06/06 01:17:56;;;;;;;6.00;2.15;;;;;;;25.86;42.64;96886.50;5134867;27;20022;-26
2022/06/06 01:20:24;;;;;;;5.85;2.63;;;;;;;25.80;42.60;96885.03;5134645;27;20467;-26
2022/06/06 01:22:49;;;;;;;4.28;2.10;;;;;;;25.81;42.87;96889.34;5135138;27;20435;-26
2022/06/06 01:25:33;;;;;;;4.72;2.03;;;;;;;25.82;42.87;96888.81;5134389;27;20053;-26
2022/06/06 01:28:36;;;;;;;6.10;2.45;;;;;;;25.79;42.40;96884.28;5116019;27;20421;-26
2022/06/06 01:31:07;;;;;;;3.20;2.00;;;;;;;25.83;42.67;96887.56;5134530;27;20161;-26
2022/06/06 01:33:48;;;;;;;3.15;2.17;;;;;;;25.80;42.35;96890.59;5134452;27;20027;-26
2022/06/06 01:36:13;;;;;;;6.80;2.25;;;;;;;25.81;42.42;96878.97;5134336;27;20023;-26
2022/06/06 01:38:40;;;;;;;5.15;2.17;;;;;;;25.84;42.46;96880.69;5134410;28;20030;-27
2022/06/06 01:41:11;;;;;;;5.22;2.75;;;;;;;25.77;42.43;96873.69;5134416;28;20019;-26
2022/06/06 01:43:44;;;;;;;6.03;2.47;;;;;;;25.82;42.33;96874.16;5132131;28;20030;-26
2022/06/06 01:46:17;;;;;;;4.47;1.92;;;;;;;25.80;42.26;96874.69;5132313;28;20098;-26
2022/06/06 01:48:45;;;;;;;4.32;2.22;;;;;;;25.81;42.32;96867.84;5134413;28;20027;-26
2022/06/06 01:51:14;;;;;;;4.93;2.17;;;;;;;25.78;42.59;96857.78;5134151;28;20031;-26
2022/06/06 01:53:40;;;;;;;5.55;2.20;;;;;;;25.82;42.16;96857.50;5134495;28;20050;-26
2022/06/06 01:56:10;;;;;;;4.97;2.50;;;;;;;25.81;42.48;96864.31;5134230;28;20019;-26
2022/06/06 01:58:36;;;;;;;6.57;2.22;;;;;;;25.79;42.23;96856.50;5115623;28;20027;-26
2022/06/06 02:01:03;;;;;;;4.75;2.28;;;;;;;25.80;42.41;96858.03;5134194;28;20071;-26
2022/06/06 02:03:30;;;;;;;4.57;2.17;;;;;;;25.83;42.09;96859.00;5134074;28;20034;-26
2022/06/06 02:05:56;;;;;;;5.25;2.08;;;;;;;25.76;42.46;96852.72;5134535;28;20405;-25
2022/06/06 02:08:21;;;;;;;3.50;2.00;;;;;;;25.79;42.35;96852.97;5134068;28;20032;-26
2022/06/06 02:10:47;;;;;;;6.28;2.42;;;;;;;25.76;42.47;96857.53;5133778;28;20036;-25
2022/06/06 02:13:13;;;;;;;5.50;2.08;;;;;;;25.79;42.21;96858.53;5134353;28;20019;-26
2022/06/06 02:15:40;;;;;;;4.22;2.13;;;;;;;25.79;42.52;96853.72;5134236;28;20085;-26
2022/06/06 02:18:06;;;;;;;6.22;2.25;;;;;;;25.76;42.39;96854.75;5133893;28;20019;-26
2022/06/06 02:20:32;;;;;;;3.13;1.83;;;;;;;25.76;42.38;96858.28;5134006;28;20023;-26
2022/06/06 02:22:59;;;;;;;5.68;2.13;;;;;;;25.75;42.12;96859.56;5134141;28;20023;-27
2022/06/06 02:25:25;;;;;;;6.57;2.28;;;;;;;25.76;42.12;96861.06;5133999;28;20043;-26
2022/06/06 02:27:51;;;;;;;4.63;2.20;;;;;;;25.76;41.92;96860.31;5133885;28;20119;-26
2022/06/06 02:30:24;;;;;;;4.93;2.47;;;;;;;25.73;42.21;96855.78;5133708;28;20098;-26
2022/06/06 02:32:50;;;;;;;4.95;2.40;;;;;;;25.76;42.35;96849.19;5133965;28;20031;-26
2022/06/06 02:35:22;;;;;;;8.48;2.65;;;;;;;25.64;42.71;96842.97;5133797;28;20110;-26
2022/06/06 02:37:48;;;;;;;5.38;2.63;;;;;;;25.71;42.46;96848.00;5133920;28;20025;-26
2022/06/06 02:40:16;;;;;;;9.20;2.53;;;;;;;25.69;42.54;96838.66;5133790;28;20042;-26
2022/06/06 02:42:43;;;;;;;5.13;2.22;;;;;;;25.71;42.47;96850.78;5133962;28;20034;-25
2022/06/06 02:45:10;;;;;;;6.22;2.40;;;;;;;25.74;42.10;96846.94;5136296;27;20019;-26
2022/06/06 02:47:36;;;;;;;5.57;2.85;;;;;;;25.75;42.20;96858.81;5137599;27;20379;-26
2022/06/06 02:50:04;;;;;;;4.65;2.35;;;;;;;25.73;42.12;96853.00;5137378;27;20034;-26
2022/06/06 02:52:29;;;;;;;5.13;2.47;;;;;;;25.73;41.96;96850.97;5137506;27;20386;-26
2022/06/06 02:54:55;;;;;;;4.65;2.83;;;;;;;25.66;42.63;96862.66;5137283;27;20019;-26
2022/06/06 02:57:21;;;;;;;7.15;2.38;;;;;;;25.71;42.40;96859.09;5137371;27;20048;-25
2022/06/06 02:59:49;;;;;;;5.55;2.38;;;;;;;25.74;42.38;96854.50;5137307;27;20023;-26
2022/06/06 03:02:15;;;;;;;4.47;2.38;;;;;;;25.73;42.07;96850.97;5137270;27;20157;-26
2022/06/06 03:04:40;;;;;;;6.47;2.00;;;;;;;25.73;42.14;96850.22;5137413;27;20431;-26
2022/06/06 03:07:43;;;;;;;5.82;2.35;;;;;;;25.71;42.10;96848.00;5137214;27;20058;-26
2022/06/06 03:10:27;;;;;;;6.35;2.22;;;;;;;25.66;42.35;96857.13;5136791;27;20047;-25
2022/06/06 03:13:14;;;;;;;5.28;2.40;;;;;;;25.68;42.26;96849.03;5137265;27;20439;-26
2022/06/06 03:21:40;;;;;;;;;;;;;;;25.62;42.72;96842.00;5137599;27;20030;-26
2022/06/06 03:24:23;;;;;;;5.47;2.17;;;;;;;25.66;42.38;96848.03;5137153;27;19908;-26
2022/06/06 03:27:28;;;;;;;5.68;2.30;;;;;;;25.66;42.33;96848.78;5136929;27;20048;-25
2022/06/06 03:30:06;;;;;;;5.95;2.08;;;;;;;25.66;42.16;96848.78;5085461;27;20038;-26
2022/06/06 03:33:19;;;;;;;9.77;3.00;;;;;;;25.65;42.10;96850.06;5136846;27;20019;-26
2022/06/06 03:35:53;;;;;;;6.78;2.85;;;;;;;25.65;42.24;96854.84;5045634;27;20033;-26
2022/06/06 03:38:39;;;;;;;5.38;2.83;;;;;;;25.61;42.32;96859.91;5136782;27;20058;-26
2022/06/06 03:41:36;;;;;;;5.43;2.60;;;;;;;25.62;42.15;96856.63;5136612;27;20383;-26
2022/06/06 03:44:10;;;;;;;6.68;2.20;;;;;;;25.64;42.02;96859.66;5136474;27;20027;-26
2022/06/06 03:46:44;;;;;;;8.60;2.53;;;;;;;25.64;42.20;96858.91;5136354;27;20031;-26
2022/06/06 03:49:30;;;;;;;5.90;2.70;;;;;;;25.71;41.83;96861.13;5136409;27;20386;-26
2022/06/06 03:52:16;;;;;;;6.95;2.47;;;;;;;25.66;42.05;96856.34;5136373;27;20036;-26
2022/06/06 03:55:04;;;;;;;7.85;2.50;;;;;;;25.69;41.97;96853.31;5136520;27;20019;-26
2022/06/06 03:57:34;;;;;;;5.07;1.77;;;;;;;25.65;41.75;96861.16;5087873;27;20085;-25
2022/06/06 04:00:06;;;;;;;5.55;2.70;;;;;;;25.63;41.94;96855.38;5136167;27;20054;-25
2022/06/06 04:02:35;;;;;;;4.53;2.10;;;;;;;25.60;41.85;96858.38;5136099;27;20027;-26
2022/06/06 04:05:04;;;;;;;4.82;2.00;;;;;;;25.60;41.99;96853.59;5135992;27;20055;-25
2022/06/06 04:07:30;;;;;;;8.18;2.35;;;;;;;25.64;41.82;96858.91;5136091;27;20027;-26
2022/06/06 04:09:56;;;;;;;8.43;2.22;;;;;;;25.65;41.53;96860.41;5135614;27;20091;-26
2022/06/06 04:12:40;;;;;;;6.00;2.10;;;;;;;25.58;41.59;96860.94;5136010;27;20405;-26
2022/06/06 04:15:30;;;;;;;4.88;2.60;;;;;;;25.63;41.50;96866.47;5135890;27;20023;-26
2022/06/06 04:18:26;;;;;;;11.65;2.88;;;;;;;25.59;41.46;96868.00;5135678;27;20023;-26
2022/06/06 04:21:45;;;;;;;7.60;2.42;;;;;;;25.60;41.69;96869.50;5095263;27;20038;-26
2022/06/06 04:24:13;;;;;;;5.35;2.05;;;;;;;25.61;41.64;96871.03;5032496;28;20034;-26
2022/06/06 04:27:18;;;;;;;10.50;2.50;;;;;;;25.58;41.48;96872.81;5032366;28;20091;-26
2022/06/06 04:29:58;;;;;;;6.97;2.05;;;;;;;25.61;41.35;96871.03;5032411;28;20033;-26
2022/06/06 04:32:43;;;;;;;10.60;2.03;;;;;;;25.58;41.31;96863.72;5032442;28;20029;-26
2022/06/06 04:35:45;;;;;;;7.18;2.50;;;;;;;25.60;41.41;96878.56;5032343;28;20037;-26
2022/06/06 04:38:53;;;;;;;6.90;2.65;;;;;;;25.59;41.36;96881.91;5029430;28;20111;-26
2022/06/06 04:41:43;;;;;;;7.82;2.42;;;;;;;25.57;41.42;96876.09;5024702;28;20030;-25
2022/06/06 04:44:37;;;;;;;8.30;3.03;;;;;;;25.54;41.40;96877.13;5025277;28;20034;-25
2022/06/06 04:47:07;;;;;;;;;;;;;;;25.51;41.27;96875.38;5000633;28;20394;-26
2022/06/06 04:49:33;;;;;;;8.52;2.80;;;;;;;25.55;41.24;96873.09;5009795;28;19913;-26
2022/06/06 04:52:01;;;;;;;6.40;2.50;;;;;;;25.54;41.32;96877.13;5009980;28;20133;-26
2022/06/06 04:54:29;;;;;;;8.88;2.65;;;;;;;25.51;41.63;96872.59;5040458;28;20058;-26
2022/06/06 04:56:58;;;;;;;7.55;2.53;;;;;;;25.54;41.06;96877.13;5122427;27;20027;-26
2022/06/06 04:59:25;;;;;;;9.65;2.58;;;;;;;25.52;41.06;96874.09;5132948;27;20027;-26
2022/06/06 05:01:51;;;;;;;8.57;2.60;;;;;;;25.50;41.12;96877.41;5132618;27;20023;-26
2022/06/06 05:04:16;;;;;;;6.57;2.53;;;;;;;25.52;41.36;96877.63;5132940;27;20539;-25
2022/06/06 05:07:00;;;;;;;6.65;2.60;;;;;;;25.59;41.06;96873.56;5132557;27;20364;-26
2022/06/06 05:09:44;;;;;;;10.93;2.88;;;;;;;25.56;41.03;96872.56;5129718;27;20077;-26
2022/06/06 05:12:15;;;;;;;6.07;2.13;;;;;;;25.55;41.06;96878.63;5112373;28;20050;-25
2022/06/06 05:15:11;;;;;;;8.00;2.22;;;;;;;25.51;41.38;96875.38;5111964;28;20027;-26
2022/06/06 05:17:46;;;;;;;4.28;2.00;;;;;;;25.58;41.29;96878.38;5112255;28;20027;-26
2022/06/06 05:20:17;;;;;;;5.53;2.22;;;;;;;25.59;40.77;96879.84;5112033;27;20030;-26
2022/06/06 05:23:01;;;;;;;6.93;2.47;;;;;;;25.55;41.20;96882.16;5112185;28;20062;-26
2022/06/06 05:26:15;;;;;;;5.68;2.42;;;;;;;25.63;40.72;96879.59;5110614;28;20093;-26
2022/06/06 05:28:59;;;;;;;5.40;2.75;;;;;;;25.60;41.08;96881.34;5112002;28;20027;-27
2022/06/06 05:31:33;;;;;;;7.32;2.90;;;;;;;25.58;41.00;96883.91;5111936;28;20028;-26
2022/06/06 05:34:09;;;;;;;7.15;3.97;;;;;;;25.61;40.78;96877.34;5097493;28;20027;-26
2022/06/06 05:36:45;;;;;;;7.63;3.60;;;;;;;25.52;40.90;96876.88;5091710;28;20027;-26
2022/06/06 05:39:32;;;;;;;7.38;2.88;;;;;;;25.60;40.54;96873.03;5091498;28;20020;-25
2022/06/06 05:42:24;;;;;;;11.60;2.53;;;;;;;25.62;40.43;96867.75;5091495;28;20016;-26
2022/06/06 05:45:00;;;;;;;10.60;3.47;;;;;;;25.63;40.44;96874.81;5091357;28;20031;-26
2022/06/06 05:47:44;;;;;;;10.05;3.08;;;;;;;25.64;40.84;96878.34;5091534;28;20525;-25
2022/06/06 05:50:21;;;;;;;7.53;2.63;;;;;;;25.61;40.67;96871.03;5090961;28;20035;-25
2022/06/06 05:53:04;;;;;;;8.70;2.90;;;;;;;25.60;40.76;96878.56;5091529;28;20043;-26
2022/06/06 05:55:49;;;;;;;6.10;2.50;;;;;;;25.64;40.60;96884.66;5091384;28;20077;-26
2022/06/06 05:58:33;;;;;;;8.18;2.85;;;;;;;25.64;40.78;96886.66;5091134;28;20028;-26
2022/06/06 06:01:12;;;;;;;6.40;2.70;;;;;;;25.62;41.01;96892.75;5091426;28;20052;-26
2022/06/06 06:04:00;;;;;;;11.18;3.13;;;;;;;25.62;40.86;96889.22;5091164;28;20121;-26
2022/06/06 06:06:38;;;;;;;6.05;2.97;;;;;;;25.56;41.11;96894.78;5091346;28;20531;-26
2022/06/06 06:09:12;;;;;;;8.02;2.40;;;;;;;25.49;41.26;96900.88;5091264;28;20036;-26
2022/06/06 06:12:28;;;;;;;9.85;2.78;;;;;;;25.35;41.73;96899.94;5109690;28;20109;-26
2022/06/06 06:15:08;;;;;;;10.57;3.13;;;;;;;25.34;41.78;96901.25;5055016;28;20051;-26
2022/06/06 06:17:37;;;;;;;6.97;2.90;;;;;;;25.49;41.59;96898.09;5111652;28;20024;-26
2022/06/06 06:20:10;;;;;;;6.65;2.75;;;;;;;25.57;41.38;96904.63;5114166;28;20034;-26
2022/06/06 06:22:40;;;;;;;7.07;3.22;;;;;;;25.57;41.07;96896.28;5115192;28;20019;-26
2022/06/06 06:25:09;;;;;;;6.10;2.85;;;;;;;25.64;40.96;96897.78;5113633;28;20034;-25
2022/06/06 06:27:35;;;;;;;12.27;3.33;;;;;;;25.53;41.69;96904.13;5115249;28;20024;-26
2022/06/06 06:30:03;;;;;;;10.75;3.25;;;;;;;25.59;41.60;96902.06;5115420;28;20028;-26
2022/06/06 06:32:40;;;;;;;4.75;2.45;;;;;;;25.53;41.81;96887.47;5116889;27;20041;-26
2022/06/06 06:35:28;;;;;;;12.80;2.90;;;;;;;25.38;42.45;96893.38;5135652;27;20072;-26
2022/06/06 06:38:28;;;;;;;8.10;2.80;;;;;;;25.53;41.79;96892.28;5117084;27;20023;-26
2022/06/06 06:40:54;;;;;;;11.90;3.25;;;;;;;25.50;42.03;96887.75;5135829;27;20022;-25
2022/06/06 06:43:47;;;;;;;7.40;3.20;;;;;;;25.60;41.72;96891.72;5135640;27;20491;-25
2022/06/06 06:46:19;;;;;;;7.88;3.10;;;;;;;25.61;41.64;96894.00;5135634;27;20030;-26
2022/06/06 06:48:46;;;;;;;7.40;2.63;;;;;;;25.55;41.34;96896.06;5135637;27;20027;-26
2022/06/06 06:51:30;;;;;;;17.85;3.53;;;;;;;25.56;41.96;96892.00;5135180;27;20083;-26
2022/06/06 06:54:13;;;;;;;11.38;3.28;;;;;;;25.62;42.00;96897.53;5135627;27;20054;-26
2022/06/06 06:57:05;;;;;;;9.60;2.55;;;;;;;25.52;41.68;96896.31;5135475;27;20394;-26
2022/06/06 06:59:41;;;;;;;10.55;2.90;;;;;;;25.59;41.62;96901.34;5135514;27;20491;-26
2022/06/06 07:08:35;;;;;;;9.07;2.50;;;;;;;25.72;41.47;96891.16;5135219;27;20702;-26
2022/06/06 07:11:04;;;;;;;8.13;2.75;;;;;;;25.72;41.62;96896.69;5120410;27;20054;-26
2022/06/06 07:13:38;;;;;;;10.45;2.53;;;;;;;25.70;42.03;96902.03;5114156;28;20098;-26
2022/06/06 07:16:20;;;;;;;4.85;2.40;;;;;;;25.75;41.31;96903.25;5114222;28;20521;-26
2022/06/06 07:18:51;;;;;;;9.48;2.78;;;;;;;25.74;41.33;96893.41;5114639;28;20031;-25
2022/06/06 07:21:18;;;;;;;6.95;2.75;;;;;;;25.63;41.87;96896.28;5114545;28;20028;-26
2022/06/06 07:23:46;;;;;;;7.53;2.70;;;;;;;25.74;41.45;96896.94;5114354;28;20038;-26
2022/06/06 07:26:12;;;;;;;9.85;2.85;;;;;;;25.46;43.00;96893.59;5112372;27;20475;-28
2022/06/06 07:28:38;;;;;;;8.48;3.35;;;;;;;25.07;45.11;96893.81;5098426;28;20024;-27
2022/06/06 07:31:37;;;;;;;11.82;3.33;;;;;;;25.57;43.10;96898.31;5095562;28;20024;-29
2022/06/06 07:34:22;;;;;;;8.73;3.38;;;;;;;25.62;42.92;96897.53;5095810;28;20480;-28
2022/06/06 07:37:08;;;;;;;9.23;2.95;;;;;;;25.68;42.82;96884.38;5096005;28;20024;-27
2022/06/06 07:39:58;;;;;;;7.97;2.88;;;;;;;25.64;42.90;96881.13;5095318;28;20388;-27
2022/06/06 07:42:48;;;;;;;9.52;2.60;;;;;;;25.68;42.76;96881.59;5095553;28;20024;-27
2022/06/06 07:45:34;;;;;;;7.40;2.63;;;;;;;25.64;42.32;96879.09;5095643;28;20089;-27
2022/06/06 07:48:06;;;;;;;13.18;2.67;;;;;;;25.68;42.64;96881.59;5095438;28;20032;-28
2022/06/06 07:50:44;;;;;;;7.90;2.50;;;;;;;25.71;42.58;96886.13;5095610;28;20111;-27
2022/06/06 07:53:29;;;;;;;7.15;2.63;;;;;;;25.69;42.65;96883.09;5095079;28;20264;-26
2022/06/06 07:56:39;;;;;;;6.60;2.58;;;;;;;25.69;42.73;96883.09;5095282;28;20036;-27
2022/06/06 07:59:17;;;;;;;8.52;2.90;;;;;;;25.72;42.34;96898.72;5079590;28;20036;-28
2022/06/06 08:01:57;;;;;;;10.50;2.25;;;;;;;25.72;42.62;96898.72;5095149;28;20027;-28
2022/06/06 08:04:51;;;;;;;9.52;3.20;;;;;;;25.67;42.68;96900.28;5094829;28;20022;-27
2022/06/06 08:07:27;;;;;;;9.48;2.75;;;;;;;25.66;42.50;96896.00;5095032;28;20496;-27
2022/06/06 08:10:17;;;;;;;10.27;2.40;;;;;;;25.68;42.33;96899.03;5100091;28;20048;-27
2022/06/06 08:12:52;;;;;;;8.50;2.55;;;;;;;25.69;42.54;96905.34;5115555;28;20480;-27
2022/06/06 08:15:30;;;;;;;10.23;2.47;;;;;;;25.77;42.61;96904.25;5115405;28;20031;-29
2022/06/06 08:18:08;;;;;;;8.82;2.70;;;;;;;25.76;42.53;96910.31;5115230;28;20024;-28
2022/06/06 08:21:07;;;;;;;8.63;2.70;;;;;;;25.72;42.50;96905.03;5115372;28;20027;-27
2022/06/06 08:23:35;;;;;;;7.60;2.67;;;;;;;25.73;42.23;96914.88;5026042;28;20048;-27
2022/06/06 08:26:04;;;;;;;4.55;2.85;;;;;;;25.69;42.63;96914.41;5115179;28;20088;-28
2022/06/06 08:28:33;;;;;;;6.15;2.58;;;;;;;25.71;42.49;96911.13;5114934;28;20054;-28
2022/06/06 08:30:58;;;;;;;13.65;2.70;;;;;;;25.73;42.41;96923.22;5115021;28;20027;-27
2022/06/06 08:33:25;;;;;;;7.30;2.42;;;;;;;25.69;42.59;96917.19;5115199;28;20027;-27
2022/06/06 08:36:30;;;;;;;8.15;2.47;;;;;;;25.72;42.34;96909.84;5114923;28;20078;-27
2022/06/06 08:39:10;;;;;;;8.60;2.78;;;;;;;25.74;41.92;96910.06;5112879;28;20028;-27
2022/06/06 08:41:38;;;;;;;7.32;3.05;;;;;;;25.71;42.31;96913.91;5114395;28;20055;-28
2022/06/06 08:44:12;;;;;;;6.22;2.65;;;;;;;25.75;42.21;96906.03;5114640;28;20069;-27
2022/06/06 08:46:49;;;;;;;7.50;2.40;;;;;;;25.57;42.29;96910.19;5114718;28;20027;-28
2022/06/06 08:53:20;;;;;;;7.18;2.60;;;;;;;25.73;41.87;96895.44;5114065;28;20074;-27
2022/06/06 08:56:04;;;;;;;9.10;2.38;;;;;;;25.74;41.92;96891.38;5114381;28;20027;-27
2022/06/06 08:59:08;;;;;;;6.57;2.42;;;;;;;25.74;41.79;96904.53;5114355;28;20024;-28
2022/06/06 09:02:21;;;;;;;6.47;2.78;;;;;;;25.67;41.84;96899.53;5114325;28;20020;-27
2022/06/06 09:04:52;;;;;;;7.28;2.83;;;;;;;25.68;41.99;96903.81;5012065;28;20075;-27
2022/06/06 09:07:55;;;;;;;9.05;2.72;;;;;;;25.67;41.98;96908.63;5012295;28;20049;-28
2022/06/06 09:10:39;;;;;;;6.47;2.30;;;;;;;25.65;41.87;96902.06;5011738;28;20443;-28
2022/06/06 09:13:10;;;;;;;5.00;2.65;;;;;;;25.66;41.86;96903.56;5011943;28;20034;-27
2022/06/06 09:16:03;;;;;;;6.30;2.67;;;;;;;25.61;42.11;96901.59;5011880;28;20038;-27
2022/06/06 09:18:50;;;;;;;5.97;1.98;;;;;;;25.66;42.00;96901.56;5011847;28;20030;-27
2022/06/06 09:21:46;;;;;;;6.93;2.42;;;;;;;25.68;41.68;96892.72;5012079;28;20430;-27
2022/06/06 09:24:23;;;;;;;4.80;2.10;;;;;;;25.69;41.67;96900.53;5011925;28;20072;-28
2022/06/06 09:27:15;;;;;;;6.95;2.20;;;;;;;25.68;41.61;96899.03;5016220;28;20531;-28
2022/06/06 09:30:17;;;;;;;7.30;2.85;;;;;;;25.64;41.72;96892.97;5029050;28;20525;-31
2022/06/06 09:33:04;;;;;;;5.13;3.27;;;;;;;25.62;42.00;96897.53;5031618;28;20037;-27
2022/06/06 09:35:44;;;;;;;7.20;3.42;;;;;;;25.77;41.45;96900.72;5086740;27;20041;-27
2022/06/06 09:38:33;;;;;;;5.03;2.38;;;;;;;25.72;41.51;96907.81;5134335;27;20019;-28
2022/06/06 09:41:21;;;;;;;11.50;2.80;;;;;;;25.71;42.04;96902.78;5134484;27;20023;-27
2022/06/06 09:43:49;;;;;;;8.95;3.13;;;;;;;25.77;41.62;96915.38;5134792;27;20023;-27
2022/06/06 09:46:52;;;;;;;4.88;2.28;;;;;;;25.75;42.10;96909.56;5134587;27;20064;-27
2022/06/06 09:50:17;;;;;;;8.85;2.80;;;;;;;25.79;41.91;96919.66;5134618;28;20023;-29
2022/06/06 09:53:12;;;;;;;7.85;2.40;;;;;;;25.55;42.57;96911.97;5031613;28;20505;-28
2022/06/06 09:59:12;;;;;;;6.15;2.42;;;;;;;25.65;42.08;96910.41;5035459;28;20052;-29
2022/06/06 10:02:24;;;;;;;6.13;2.75;;;;;;;25.78;41.68;96916.13;5035213;28;20029;-29
2022/06/06 10:05:02;;;;;;;7.43;2.72;;;;;;;25.71;41.88;96925.78;5035097;28;20372;-27
2022/06/06 10:07:27;;;;;;;5.55;2.97;;;;;;;25.77;41.84;96928.50;5034944;28;20032;-27
2022/06/06 10:10:06;;;;;;;5.28;2.40;;;;;;;25.69;42.05;96919.22;5035104;28;20045;-28
2022/06/06 10:12:46;;;;;;;7.82;2.95;;;;;;;25.72;41.82;96920.94;5035089;28;20030;-27
2022/06/06 10:15:36;;;;;;;6.47;2.15;;;;;;;25.76;41.40;96916.63;5035071;28;20572;-27
2022/06/06 10:18:26;;;;;;;6.55;2.60;;;;;;;25.78;41.48;96913.34;5035021;28;20425;-27
2022/06/06 10:21:10;;;;;;;7.40;2.47;;;;;;;25.80;41.00;96915.59;5034841;28;20041;-27
2022/06/06 10:23:59;;;;;;;5.70;2.50;;;;;;;25.84;40.95;96911.25;5034810;28;20113;-28
2022/06/06 10:26:54;;;;;;;5.15;2.20;;;;;;;25.83;40.89;96918.13;5034794;28;20482;-27
2022/06/06 10:30:10;;;;;;;10.43;2.50;;;;;;;25.92;40.10;96901.09;5137599;27;20107;-28
2022/06/06 10:32:40;;;;;;;4.90;2.50;;;;;;;25.91;40.12;96905.16;5137166;27;20054;-27
2022/06/06 10:35:36;;;;;;;6.30;2.55;;;;;;;25.88;40.17;96913.75;5137620;27;20041;-27
2022/06/06 10:38:10;;;;;;;6.55;2.38;;;;;;;25.85;39.83;96896.09;5137644;27;20042;-27
2022/06/06 10:41:17;;;;;;;7.80;2.63;;;;;;;25.86;39.79;96892.06;5137846;27;20023;-28
2022/06/06 10:43:58;;;;;;;7.28;2.08;;;;;;;25.89;39.58;96899.34;5137100;27;20031;-28
2022/06/06 10:46:35;;;;;;;4.03;1.95;;;;;;;25.94;39.56;96906.16;5137497;27;20483;-27
2022/06/06 10:49:06;;;;;;;4.10;2.10;;;;;;;25.85;39.65;96904.44;5137500;27;20038;-28
2022/06/06 10:51:56;;;;;;;6.20;2.10;;;;;;;25.86;39.32;96891.28;5137615;27;20030;-28
2022/06/06 10:54:54;;;;;;;6.30;1.98;;;;;;;25.92;39.29;96900.34;5137423;27;20027;-27
2022/06/06 10:57:59;;;;;;;4.13;1.80;;;;;;;25.90;39.21;96889.75;5120018;27;20019;-27
2022/06/06 11:00:58;;;;;;;5.88;2.20;;;;;;;25.85;39.09;96896.09;5116819;28;20043;-27
2022/06/06 11:03:51;;;;;;;3.83;1.90;;;;;;;25.87;39.44;96893.56;5116780;28;20032;-27
2022/06/06 11:06:35;;;;;;;4.65;2.13;;;;;;;25.82;38.92;96891.59;5116019;28;20031;-28
2022/06/06 11:09:37;;;;;;;6.20;2.53;;;;;;;25.88;39.12;96885.97;5116516;28;20089;-28
2022/06/06 11:12:19;;;;;;;4.90;1.70;;;;;;;25.85;38.69;96893.31;5116783;28;20032;-27
2022/06/06 11:14:45;;;;;;;4.97;2.10;;;;;;;25.90;38.68;96886.97;5116428;28;20030;-27
2022/06/06 11:17:40;;;;;;;4.75;1.88;;;;;;;25.80;38.30;96894.13;5116202;28;20020;-27
2022/06/06 11:20:33;;;;;;;3.15;1.70;;;;;;;25.76;38.04;96880.50;5116424;28;20529;-27
2022/06/06 11:23:28;;;;;;;4.57;1.92;;;;;;;25.86;37.72;96880.19;5097764;28;20073;-28
2022/06/06 11:26:09;;;;;;;4.03;1.70;;;;;;;25.92;37.34;96867.00;5094229;28;20498;-27
2022/06/06 11:28:58;;;;;;;4.55;1.85;;;;;;;25.93;36.73;96874.06;5116217;28;20057;-29
2022/06/06 11:31:50;;;;;;;2.95;1.50;;;;;;;25.88;36.94;96870.06;5115938;28;20027;-27
2022/06/06 11:34:39;;;;;;;2.75;1.60;;;;;;;25.85;36.56;96879.44;5115872;28;20048;-28
2022/06/06 11:37:31;;;;;;;2.58;1.60;;;;;;;25.91;36.51;96880.16;5116232;28;20027;-27
2022/06/06 11:40:21;;;;;;;4.13;1.55;;;;;;;25.92;35.92;96876.09;5116231;28;20019;-27
2022/06/06 11:42:55;;;;;;;4.32;1.85;;;;;;;25.96;36.11;96875.81;5116167;28;20023;-27
2022/06/06 11:45:48;;;;;;;3.58;1.40;;;;;;;25.97;36.17;96860.63;5115894;28;20024;-28
2022/06/06 11:48:26;;;;;;;3.70;1.52;;;;;;;26.00;36.36;96849.25;5115724;28;20019;-28
2022/06/06 11:51:26;;;;;;;5.40;1.70;;;;;;;25.97;36.10;96858.59;5116012;28;20063;-27
2022/06/06 11:54:04;;;;;;;2.40;1.48;;;;;;;25.98;36.50;96843.44;5115804;28;20471;-27
2022/06/06 11:56:39;;;;;;;5.55;1.80;;;;;;;25.80;36.54;96858.03;5115551;28;20023;-29
2022/06/06 11:59:29;;;;;;;4.93;1.60;;;;;;;25.93;35.95;96849.06;5115671;28;20064;-28
2022/06/06 12:02:04;;;;;;;4.25;1.40;;;;;;;25.96;35.97;96857.13;5115393;28;20034;-27
2022/06/06 12:04:57;;;;;;;2.92;1.48;;;;;;;25.93;36.28;96838.72;5115397;28;20058;-27
2022/06/06 12:07:41;;;;;;;2.97;1.55;;;;;;;25.87;35.33;96846.31;5115471;28;20030;-27
2022/06/06 12:10:25;;;;;;;2.65;1.40;;;;;;;25.97;36.17;96841.94;5115183;28;20423;-27
2022/06/06 12:13:23;;;;;;;3.78;1.48;;;;;;;25.97;35.77;96841.94;5115318;28;20480;-28
2022/06/06 12:16:26;;;;;;;3.47;1.50;;;;;;;25.95;35.48;96841.72;5115309;28;20042;-27
2022/06/06 12:19:19;;;;;;;2.15;1.20;;;;;;;25.95;35.49;96838.94;5115120;28;20024;-27
2022/06/06 12:22:05;;;;;;;3.10;1.63;;;;;;;25.98;34.75;96831.56;5115413;28;20353;-27
2022/06/06 12:24:48;;;;;;;2.60;1.30;;;;;;;26.02;34.83;96834.81;5114953;28;20019;-28
2022/06/06 12:27:32;;;;;;;5.50;1.45;;;;;;;25.96;34.76;96834.13;5115020;28;20080;-28
2022/06/06 12:30:03;;;;;;;3.40;1.50;;;;;;;26.11;35.01;96834.47;5115029;28;20424;-29
2022/06/06 12:32:45;;;;;;;2.70;1.42;;;;;;;26.11;34.84;96826.13;5114838;28;20476;-27
2022/06/06 12:35:32;;;;;;;3.85;1.45;;;;;;;26.03;35.10;96823.19;5114917;28;20037;-27
2022/06/06 12:38:16;;;;;;;3.17;1.52;;;;;;;26.06;35.35;96819.38;5114584;28;20089;-27
2022/06/06 12:40:48;;;;;;;2.50;1.25;;;;;;;26.01;35.30;96814.63;5114864;28;20035;-27
2022/06/06 12:43:43;;;;;;;3.60;1.40;;;;;;;26.04;34.99;96819.13;5114781;28;20076;-28
2022/06/06 12:46:16;;;;;;;2.42;1.45;;;;;;;25.90;35.83;96814.72;5114578;28;20030;-27
2022/06/06 12:49:05;;;;;;;3.10;2.00;;;;;;;26.04;35.09;96819.13;5114406;28;20106;-27
2022/06/06 12:52:01;;;;;;;4.22;1.58;;;;;;;26.07;34.94;96812.56;5114660;28;20394;-27
2022/06/06 12:55:26;;;;;;;2.88;1.45;;;;;;;26.00;35.06;96827.00;5114623;28;20035;-27
2022/06/06 12:57:37;;;;;;;4.82;1.67;;;;;;;26.06;34.70;96811.03;5114469;28;20340;-27
2022/06/06 13:00:14;;;;;;;3.60;1.40;;;;;;;26.06;34.40;96811.03;5114506;28;20126;-27